createdAt,value
2018-11-29T00:00:50.410Z,51.67
2018-11-29T00:03:19.541Z,49.30
2018-11-29T00:05:48.610Z,51.97
2018-11-29T00:08:17.855Z,49.23
2018-11-29T00:10:46.969Z,48.47
2018-11-29T00:13:16.081Z,52.23
2018-11-29T00:15:45.237Z,50.77
2018-11-29T00:18:14.327Z,49.97
2018-11-29T00:20:43.389Z,53.60
2018-11-29T00:23:13.031Z,53.43
2018-11-29T00:25:48.125Z,53.97
2018-11-29T00:28:17.279Z,52.93
2018-11-29T00:30:46.425Z,56.20
2018-11-29T00:33:16.500Z,52.60
2018-11-29T00:35:45.556Z,53.90
2018-11-29T00:38:15.330Z,54.43
2018-11-29T00:40:44.517Z,54.87
2018-11-29T00:43:13.638Z,54.97
2018-11-29T00:45:42.692Z,56.87
2018-11-29T00:48:11.799Z,53.53
2018-11-29T00:50:40.971Z,55.40
2018-11-29T00:53:10.042Z,55.20
2018-11-29T00:55:39.134Z,55.43
2018-11-29T00:58:08.104Z,53.77
2018-11-29T01:00:37.726Z,56.77
2018-11-29T01:03:06.848Z,56.43
2018-11-29T01:05:36.078Z,56.67
2018-11-29T01:08:05.291Z,55.03
2018-11-29T01:10:34.310Z,61.13
2018-11-29T01:13:03.352Z,55.70
2018-11-29T01:15:32.479Z,54.87
2018-11-29T01:18:01.557Z,57.47
2018-11-29T01:20:30.699Z,55.60
2018-11-29T01:22:59.823Z,57.30
2018-11-29T01:25:35.548Z,57.53
2018-11-29T01:28:04.636Z,60.13
2018-11-29T01:30:33.691Z,57.73
2018-11-29T01:33:02.761Z,55.33
2018-11-29T01:35:31.938Z,54.63
2018-11-29T01:38:01.082Z,55.53
2018-11-29T01:40:30.130Z,59.33
2018-11-29T01:42:59.198Z,62.47
2018-11-29T01:45:28.292Z,61.47
2018-11-29T01:47:57.353Z,54.37
2018-11-29T01:50:26.461Z,57.13
2018-11-29T01:52:55.536Z,57.20
2018-11-29T01:55:24.828Z,54.90
2018-11-29T01:57:53.997Z,58.47
2018-11-29T02:00:23.140Z,52.80
2018-11-29T02:02:52.828Z,57.23
2018-11-29T02:05:21.863Z,52.63
2018-11-29T02:07:50.907Z,49.87
2018-11-29T02:10:26.515Z,51.37
2018-11-29T02:12:55.745Z,52.67
2018-11-29T02:15:24.980Z,53.43
2018-11-29T02:17:54.033Z,60.10
2018-11-29T02:20:23.157Z,50.03
2018-11-29T02:22:52.159Z,57.90
2018-11-29T02:25:21.308Z,51.97
2018-11-29T02:27:50.513Z,53.23
2018-11-29T02:30:21.356Z,48.83
2018-11-29T02:32:50.768Z,54.90
2018-11-29T02:35:20.062Z,47.00
2018-11-29T02:37:49.130Z,52.80
2018-11-29T02:40:20.305Z,51.23
2018-11-29T02:42:50.021Z,52.90
2018-11-29T02:45:21.081Z,46.97
2018-11-29T02:47:50.119Z,47.33
2018-11-29T02:50:19.134Z,47.00
2018-11-29T02:52:48.142Z,47.43
2018-11-29T02:55:17.191Z,44.47
2018-11-29T02:57:46.225Z,47.17
2018-11-29T03:00:16.911Z,46.90
2018-11-29T03:02:45.911Z,43.80
2018-11-29T03:05:15.496Z,46.90
2018-11-29T03:07:44.490Z,49.53
2018-11-29T03:10:14.366Z,46.50
2018-11-29T03:12:43.705Z,47.70
2018-11-29T03:15:14.662Z,50.07
2018-11-29T03:17:44.315Z,48.33
2018-11-29T03:20:14.061Z,49.50
2018-11-29T03:22:43.079Z,48.50
2018-11-29T03:25:13.178Z,48.67
2018-11-29T03:27:42.348Z,48.03
2018-11-29T03:30:13.351Z,44.90
2018-11-29T03:32:42.418Z,48.80
2018-11-29T03:35:12.514Z,44.87
2018-11-29T03:37:41.593Z,49.63
2018-11-29T03:40:12.027Z,43.87
2018-11-29T03:42:41.171Z,47.50
2018-11-29T03:45:11.315Z,44.93
2018-11-29T03:47:40.311Z,45.60
2018-11-29T03:50:13.229Z,42.97
2018-11-29T03:52:42.282Z,46.47
2018-11-29T03:55:11.583Z,43.63
2018-11-29T03:57:40.725Z,46.33
2018-11-29T04:00:13.307Z,44.13
2018-11-29T04:02:42.416Z,43.53
2018-11-29T04:05:11.477Z,40.60
2018-11-29T04:07:40.528Z,43.03
2018-11-29T04:10:11.171Z,41.50
2018-11-29T04:12:40.243Z,43.37
2018-11-29T04:15:10.434Z,43.53
2018-11-29T04:17:40.794Z,43.77
2018-11-29T04:20:10.972Z,46.90
2018-11-29T04:22:40.105Z,42.83
2018-11-29T04:25:13.731Z,42.33
2018-11-29T04:27:42.790Z,44.17
2018-11-29T04:30:12.929Z,42.47
2018-11-29T04:32:41.997Z,41.73
2018-11-29T04:35:11.307Z,42.23
2018-11-29T04:37:40.483Z,42.57
2018-11-29T04:40:12.727Z,39.57
2018-11-29T04:42:41.904Z,39.50
2018-11-29T04:45:12.813Z,38.70
2018-11-29T04:47:41.933Z,43.07
2018-11-29T04:50:10.896Z,42.63
2018-11-29T04:52:40.046Z,42.53
2018-11-29T04:55:09.684Z,37.87
2018-11-29T04:57:38.692Z,42.33
2018-11-29T05:00:17.425Z,44.07
2018-11-29T05:02:46.460Z,41.50
2018-11-29T05:05:15.535Z,39.03
2018-11-29T05:07:44.569Z,39.53
2018-11-29T05:10:17.292Z,42.53
2018-11-29T05:12:47.152Z,41.23
2018-11-29T05:15:16.192Z,40.70
2018-11-29T05:17:45.297Z,38.70
2018-11-29T05:20:14.377Z,39.70
2018-11-29T05:22:43.424Z,38.13
2018-11-29T05:25:12.484Z,44.37
2018-11-29T05:27:41.544Z,39.73
2018-11-29T05:30:12.865Z,39.43
2018-11-29T05:32:42.030Z,36.50
2018-11-29T05:35:11.910Z,41.23
2018-11-29T05:37:41.325Z,38.80
2018-11-29T05:40:14.589Z,39.87
2018-11-29T05:42:43.802Z,41.43
2018-11-29T05:45:12.883Z,40.67
2018-11-29T05:47:41.912Z,38.70
2018-11-29T05:50:11.589Z,36.27
2018-11-29T05:52:41.827Z,36.17
2018-11-29T05:55:12.035Z,37.00
2018-11-29T05:57:41.121Z,33.67
2018-11-29T06:00:13.910Z,36.77
2018-11-29T06:02:43.674Z,36.83
2018-11-29T06:05:14.153Z,36.73
2018-11-29T06:07:43.279Z,37.77
2018-11-29T06:10:12.427Z,37.87
2018-11-29T06:12:41.573Z,37.17
2018-11-29T06:15:11.269Z,41.73
2018-11-29T06:17:40.675Z,34.57
2018-11-29T06:20:17.632Z,33.07
2018-11-29T06:22:46.712Z,37.17
2018-11-29T06:25:15.871Z,36.00
2018-11-29T06:27:45.000Z,39.63
2018-11-29T06:30:19.164Z,40.60
2018-11-29T06:32:48.770Z,36.53
2018-11-29T06:35:17.811Z,36.53
2018-11-29T06:37:47.031Z,38.93
2018-11-29T06:40:16.771Z,39.20
2018-11-29T06:42:45.964Z,37.33
2018-11-29T06:45:19.645Z,37.77
2018-11-29T06:47:50.083Z,35.17
2018-11-29T06:50:19.315Z,38.13
2018-11-29T06:52:49.636Z,35.63
2018-11-29T06:55:23.617Z,35.63
2018-11-29T06:57:53.753Z,35.43
2018-11-29T07:00:28.281Z,35.47
2018-11-29T07:02:57.387Z,39.13
2018-11-29T07:05:26.524Z,37.27
2018-11-29T07:07:55.651Z,34.20
2018-11-29T07:10:30.793Z,37.33
2018-11-29T07:13:01.934Z,40.40
2018-11-29T07:15:31.154Z,35.93
2018-11-29T07:18:00.818Z,33.90
2018-11-29T07:20:30.218Z,34.17
2018-11-29T07:22:59.386Z,34.00
2018-11-29T07:25:28.654Z,32.40
2018-11-29T07:27:57.712Z,30.80
2018-11-29T07:30:26.823Z,37.47
2018-11-29T07:32:55.845Z,32.83
2018-11-29T07:35:24.930Z,32.70
2018-11-29T07:37:54.168Z,33.70
2018-11-29T07:40:23.341Z,33.87
2018-11-29T07:42:55.771Z,34.63
2018-11-29T07:45:25.596Z,33.40
2018-11-29T07:47:54.555Z,32.77
2018-11-29T07:50:23.715Z,31.90
2018-11-29T07:52:52.739Z,33.83
2018-11-29T07:55:22.760Z,36.03
2018-11-29T07:57:52.650Z,36.23
2018-11-29T08:00:23.028Z,32.07
2018-11-29T08:02:52.152Z,36.23
2018-11-29T08:05:21.232Z,30.87
2018-11-29T08:07:50.326Z,31.90
2018-11-29T08:10:19.794Z,27.20
2018-11-29T08:12:49.159Z,30.87
2018-11-29T08:15:20.016Z,29.80
2018-11-29T08:17:49.232Z,31.87
2018-11-29T08:20:19.681Z,31.57
2018-11-29T08:22:48.798Z,30.37
2018-11-29T08:25:21.292Z,33.27
2018-11-29T08:27:51.127Z,29.03
2018-11-29T08:30:20.193Z,31.83
2018-11-29T08:32:49.343Z,30.33
2018-11-29T08:35:18.369Z,31.03
2018-11-29T08:37:49.473Z,30.73
2018-11-29T08:40:20.740Z,30.80
2018-11-29T08:42:49.814Z,31.80
2018-11-29T08:45:18.906Z,31.63
2018-11-29T08:47:48.000Z,31.73
2018-11-29T08:50:18.187Z,30.30
2018-11-29T08:52:47.492Z,28.00
2018-11-29T08:55:17.959Z,33.00
2018-11-29T08:57:48.095Z,29.27
2018-11-29T09:00:18.643Z,28.43
2018-11-29T09:02:48.065Z,29.30
2018-11-29T09:05:17.241Z,30.97
2018-11-29T09:07:47.282Z,27.40
2018-11-29T09:10:23.087Z,31.80
2018-11-29T09:12:52.423Z,35.10
2018-11-29T09:15:21.808Z,31.43
2018-11-29T09:17:51.005Z,32.30
2018-11-29T09:20:21.283Z,31.83
2018-11-29T09:22:50.446Z,31.50
2018-11-29T09:25:21.508Z,31.90
2018-11-29T09:27:50.739Z,30.40
2018-11-29T09:30:21.965Z,29.30
2018-11-29T09:32:53.545Z,29.27
2018-11-29T09:35:22.776Z,27.97
2018-11-29T09:37:51.892Z,26.40
2018-11-29T09:40:21.252Z,30.17
2018-11-29T09:42:50.471Z,33.53
2018-11-29T09:45:20.518Z,33.73
2018-11-29T09:47:51.407Z,33.57
2018-11-29T09:50:20.750Z,31.57
2018-11-29T09:52:49.842Z,33.50
2018-11-29T09:55:18.923Z,26.80
2018-11-29T09:57:49.045Z,27.73
2018-11-29T10:00:28.553Z,27.37
2018-11-29T10:03:00.985Z,34.63
2018-11-29T10:05:30.309Z,29.17
2018-11-29T10:07:59.386Z,29.33
2018-11-29T10:10:28.511Z,28.50
2018-11-29T10:12:57.576Z,31.00
2018-11-29T10:15:26.962Z,30.83
2018-11-29T10:17:56.029Z,30.43
2018-11-29T10:20:25.010Z,32.93
2018-11-29T10:22:54.036Z,28.67
2018-11-29T10:25:23.190Z,29.53
2018-11-29T10:28:01.427Z,28.23
2018-11-29T10:30:35.861Z,28.73
2018-11-29T10:33:05.069Z,28.10
2018-11-29T10:35:34.226Z,28.33
2018-11-29T10:38:03.418Z,28.77
2018-11-29T10:40:32.586Z,34.37
2018-11-29T10:43:01.654Z,30.80
2018-11-29T10:45:31.433Z,30.13
2018-11-29T10:48:00.485Z,30.63
2018-11-29T10:50:29.535Z,28.77
2018-11-29T10:52:58.531Z,28.33
2018-11-29T10:55:27.619Z,28.57
2018-11-29T10:57:58.755Z,27.70
2018-11-29T11:00:34.459Z,26.67
2018-11-29T11:03:10.938Z,28.43
2018-11-29T11:05:40.205Z,29.37
2018-11-29T11:08:09.785Z,25.87
2018-11-29T11:10:40.091Z,24.93
2018-11-29T11:13:09.183Z,29.20
2018-11-29T11:15:38.690Z,29.20
2018-11-29T11:18:08.977Z,27.20
2018-11-29T11:20:38.058Z,27.67
2018-11-29T11:23:07.283Z,25.90
2018-11-29T11:25:36.414Z,25.93
2018-11-29T11:28:07.134Z,25.13
2018-11-29T11:30:38.272Z,28.50
2018-11-29T11:33:07.534Z,27.60
2018-11-29T11:35:36.682Z,26.43
2018-11-29T11:38:06.209Z,26.90
2018-11-29T11:40:35.290Z,25.50
2018-11-29T11:43:05.318Z,28.80
2018-11-29T11:45:33.424Z,27.87
2018-11-29T11:48:03.413Z,30.20
2018-11-29T11:50:31.970Z,27.67
2018-11-29T11:53:01.083Z,28.93
2018-11-29T11:55:37.327Z,28.07
2018-11-29T11:58:07.312Z,29.07
2018-11-29T12:00:36.571Z,32.20
2018-11-29T12:03:20.253Z,28.20
2018-11-29T12:05:49.397Z,29.70
2018-11-29T12:08:18.535Z,26.27
2018-11-29T12:10:47.772Z,30.90
2018-11-29T12:13:16.889Z,28.97
2018-11-29T12:15:46.111Z,26.07
2018-11-29T12:18:15.231Z,28.07
2018-11-29T12:20:44.274Z,30.07
2018-11-29T12:23:13.373Z,29.17
2018-11-29T12:25:43.079Z,27.70
2018-11-29T12:28:12.126Z,23.60
2018-11-29T12:30:45.646Z,26.70
2018-11-29T12:33:15.348Z,25.80
2018-11-29T12:35:44.843Z,25.90
2018-11-29T12:38:13.843Z,27.20
2018-11-29T12:40:43.710Z,27.83
2018-11-29T12:43:13.592Z,24.40
2018-11-29T12:45:42.644Z,26.67
2018-11-29T12:48:11.612Z,29.93
2018-11-29T12:50:40.727Z,26.80
2018-11-29T12:53:09.742Z,28.73
2018-11-29T12:55:41.089Z,27.97
2018-11-29T12:58:10.272Z,25.60
2018-11-29T13:00:39.279Z,25.70
2018-11-29T13:03:08.541Z,25.17
2018-11-29T13:05:38.254Z,26.47
2018-11-29T13:08:08.112Z,25.13
2018-11-29T13:10:37.349Z,25.47
2018-11-29T13:13:08.022Z,24.73
2018-11-29T13:15:37.073Z,23.90
2018-11-29T13:18:07.440Z,24.27
2018-11-29T13:20:36.917Z,23.87
2018-11-29T13:23:06.511Z,23.90
2018-11-29T13:25:35.649Z,24.23
2018-11-29T13:28:05.011Z,22.63
2018-11-29T13:30:35.979Z,25.03
2018-11-29T13:33:06.512Z,22.60
2018-11-29T13:35:36.017Z,21.80
2018-11-29T13:38:13.616Z,24.27
2018-11-29T13:40:48.952Z,20.63
2018-11-29T13:43:17.980Z,24.83
2018-11-29T13:45:47.138Z,22.43
2018-11-29T13:48:16.325Z,25.60
2018-11-29T13:50:45.403Z,24.67
2018-11-29T13:53:14.702Z,23.47
2018-11-29T13:55:43.962Z,22.97
2018-11-29T13:58:13.140Z,22.07
2018-11-29T14:00:42.404Z,22.63
2018-11-29T14:03:14.140Z,22.37
2018-11-29T14:05:43.266Z,19.73
2018-11-29T14:08:12.279Z,24.73
2018-11-29T14:10:42.467Z,21.77
2018-11-29T14:13:11.680Z,20.67
2018-11-29T14:15:41.042Z,20.23
2018-11-29T14:18:10.197Z,25.03
2018-11-29T14:20:39.590Z,20.17
2018-11-29T14:23:08.838Z,22.30
2018-11-29T14:25:38.150Z,24.43
2018-11-29T14:28:08.076Z,20.10
2018-11-29T14:30:37.226Z,22.40
2018-11-29T14:33:07.234Z,22.10
2018-11-29T14:35:36.515Z,21.63
2018-11-29T14:38:05.683Z,20.20
2018-11-29T14:40:35.576Z,23.07
2018-11-29T14:43:04.974Z,20.57
2018-11-29T14:45:34.299Z,21.87
2018-11-29T14:48:03.389Z,19.90
2018-11-29T14:50:34.173Z,17.93
2018-11-29T14:53:03.312Z,22.13
2018-11-29T14:55:32.311Z,18.80
2018-11-29T14:58:01.335Z,21.03
2018-11-29T15:00:30.533Z,19.50
2018-11-29T15:03:00.464Z,20.53
2018-11-29T15:05:36.308Z,18.10
2018-11-29T15:08:07.292Z,21.43
2018-11-29T15:10:37.238Z,20.63
2018-11-29T15:13:07.778Z,21.87
2018-11-29T15:15:37.139Z,19.40
2018-11-29T15:18:07.571Z,18.60
2018-11-29T15:20:40.272Z,21.70
2018-11-29T15:23:11.982Z,19.60
2018-11-29T15:25:41.341Z,24.13
2018-11-29T15:28:10.630Z,17.17
2018-11-29T15:30:40.150Z,19.67
2018-11-29T15:33:09.182Z,21.50
2018-11-29T15:35:38.204Z,22.80
2018-11-29T15:38:07.477Z,17.10
2018-11-29T15:40:36.890Z,21.13
2018-11-29T15:43:07.111Z,20.60
2018-11-29T15:45:36.413Z,22.03
2018-11-29T15:48:07.122Z,20.17
2018-11-29T15:50:36.389Z,20.87
2018-11-29T15:53:07.328Z,19.93
2018-11-29T15:55:36.929Z,23.63
2018-11-29T15:58:06.269Z,22.30
2018-11-29T16:00:35.613Z,20.23
2018-11-29T16:03:08.672Z,18.97
2018-11-29T16:05:42.208Z,22.20
2018-11-29T16:08:13.934Z,24.60
2018-11-29T16:10:43.574Z,22.83
2018-11-29T16:13:15.280Z,20.40
2018-11-29T16:15:47.180Z,21.27
2018-11-29T16:18:21.146Z,22.07
2018-11-29T16:20:54.583Z,19.23
2018-11-29T16:23:24.451Z,20.53
2018-11-29T16:25:54.586Z,18.13
2018-11-29T16:28:27.562Z,20.17
2018-11-29T16:31:11.612Z,20.83
2018-11-29T16:33:45.721Z,22.83
2018-11-29T16:36:18.225Z,21.23
2018-11-29T16:38:51.208Z,21.00
2018-11-29T16:41:23.535Z,20.47
2018-11-29T16:43:56.387Z,21.50
2018-11-29T16:46:25.935Z,21.03
2018-11-29T17:02:07.771Z,24.37
2018-11-29T17:04:38.799Z,19.30
2018-11-29T17:07:09.965Z,18.70
2018-11-29T17:09:41.885Z,20.87
2018-11-29T17:12:12.167Z,22.03
2018-11-29T17:14:42.781Z,22.73
2018-11-29T17:17:11.822Z,22.13
2018-11-29T17:19:41.687Z,22.20
2018-11-29T17:22:14.594Z,23.90
2018-11-29T17:24:43.927Z,20.27
2018-11-29T17:27:15.786Z,21.53
2018-11-29T17:29:46.530Z,20.23
2018-11-29T17:32:19.400Z,20.37
2018-11-29T17:34:53.522Z,22.63
2018-11-29T17:37:22.563Z,24.90
2018-11-29T17:39:51.644Z,18.73
2018-11-29T17:42:26.068Z,22.03
2018-11-29T17:44:55.155Z,19.40
2018-11-29T17:47:24.182Z,19.63
2018-11-29T17:49:53.378Z,20.10
2018-11-29T17:52:23.092Z,24.20
2018-11-29T17:54:52.322Z,23.13
2018-11-29T17:57:21.324Z,19.33
2018-11-29T17:59:55.197Z,19.17
2018-11-29T18:02:24.192Z,17.67
2018-11-29T18:04:53.499Z,21.83
2018-11-29T18:07:22.744Z,21.67
2018-11-29T18:09:51.665Z,20.83
2018-11-29T18:12:21.640Z,18.87
2018-11-29T18:14:50.611Z,20.57
2018-11-29T18:17:19.673Z,17.43
2018-11-29T18:19:48.726Z,18.60
2018-11-29T18:22:17.831Z,16.80
2018-11-29T18:24:46.823Z,18.37
2018-11-29T18:27:16.043Z,18.30
2018-11-29T18:29:45.927Z,19.70
2018-11-29T18:33:18.491Z,22.67
2018-11-29T18:35:50.664Z,17.70
2018-11-29T18:38:20.501Z,18.40
2018-11-29T18:40:51.125Z,19.20
2018-11-29T18:43:20.097Z,18.30
2018-11-29T18:45:53.217Z,17.47
2018-11-29T18:48:23.176Z,15.90
2018-11-29T18:50:53.574Z,17.20
2018-11-29T18:53:22.671Z,17.17
2018-11-29T18:55:54.411Z,17.67
2018-11-29T18:58:23.493Z,18.63
2018-11-29T19:00:53.754Z,17.07
2018-11-29T19:03:23.078Z,15.77
2018-11-29T19:08:29.626Z,17.10
2018-11-29T19:10:59.790Z,17.40
2018-11-29T19:13:30.082Z,14.37
2018-11-29T19:16:05.647Z,18.00
2018-11-29T19:18:34.942Z,15.30
2018-11-29T19:21:04.220Z,17.13
2018-11-29T19:23:37.916Z,15.53
2018-11-29T19:26:08.562Z,15.67
2018-11-29T19:28:42.504Z,15.90
2018-11-29T19:31:11.625Z,12.60
2018-11-29T19:33:41.760Z,15.73
2018-11-29T19:36:10.825Z,15.37
2018-11-29T19:38:39.939Z,14.90
2018-11-29T19:41:11.161Z,19.00
2018-11-29T19:43:41.349Z,13.60
2018-11-29T19:46:10.580Z,13.90
2018-11-29T19:48:39.603Z,13.10
2018-11-29T19:51:09.657Z,16.83
2018-11-29T19:53:38.755Z,14.27
2018-11-29T19:56:13.060Z,12.13
2018-11-29T19:58:42.068Z,15.73
2018-11-29T20:01:15.516Z,14.63
2018-11-29T20:03:44.664Z,15.20
2018-11-29T20:06:13.700Z,12.80
2018-11-29T20:08:43.669Z,14.97
2018-11-29T20:11:12.799Z,13.87
2018-11-29T20:13:41.811Z,16.50
2018-11-29T20:16:10.955Z,15.60
2018-11-29T20:18:42.680Z,11.13
2018-11-29T20:21:11.713Z,13.53
2018-11-29T20:23:40.875Z,14.57
2018-11-29T20:26:09.933Z,13.47
2018-11-29T20:28:38.924Z,15.50
2018-11-29T20:31:11.129Z,14.30
2018-11-29T20:33:40.597Z,13.80
2018-11-29T20:36:14.441Z,14.53
2018-11-29T20:38:44.011Z,15.13
2018-11-29T20:41:16.219Z,15.10
2018-11-29T20:43:49.440Z,14.90
2018-11-29T20:46:23.452Z,15.33
2018-11-29T20:48:53.992Z,15.03
2018-11-29T20:54:58.429Z,14.10
2018-11-29T21:05:24.413Z,13.13
2018-11-29T21:11:00.771Z,17.30
2018-11-29T21:13:30.183Z,16.77
2018-11-29T21:16:01.001Z,16.17
2018-11-29T21:18:30.261Z,14.70
2018-11-29T21:20:59.396Z,15.70
2018-11-29T21:23:28.597Z,15.37
2018-11-29T21:25:58.176Z,14.90
2018-11-29T21:28:27.258Z,16.70
2018-11-29T21:30:56.424Z,14.20
2018-11-29T21:33:25.712Z,16.40
2018-11-29T21:35:54.816Z,14.17
2018-11-29T21:38:28.901Z,15.27
2018-11-29T21:41:01.094Z,15.83
2018-11-29T21:43:33.538Z,15.03
2018-11-29T21:46:02.630Z,17.30
2018-11-29T21:48:33.964Z,14.43
2018-11-29T21:51:03.012Z,15.30
2018-11-29T21:53:33.710Z,15.90
2018-11-29T21:56:07.449Z,18.53
2018-11-29T21:58:36.818Z,15.73
2018-11-29T22:01:06.174Z,16.23
2018-11-29T22:03:35.525Z,16.27
2018-11-29T22:06:09.517Z,26.23
2018-11-29T22:08:38.893Z,17.10
2018-11-29T22:11:08.320Z,18.97
2018-11-29T22:13:37.601Z,16.63
2018-11-29T22:16:08.141Z,16.50
2018-11-29T22:18:37.721Z,14.70
2018-11-29T22:21:12.024Z,15.60
2018-11-29T22:23:46.918Z,15.93
2018-11-29T22:26:21.799Z,16.13
2018-11-29T22:28:53.512Z,15.30
2018-11-29T22:31:22.800Z,18.33
2018-11-29T22:33:56.981Z,15.90
2018-11-29T22:36:26.332Z,18.23
2018-11-29T22:38:55.585Z,21.13
2018-11-29T22:41:24.662Z,16.87
2018-11-29T22:43:57.339Z,15.97
2018-11-29T22:46:26.498Z,16.90
2018-11-29T22:48:57.510Z,16.13
2018-11-29T22:51:26.507Z,19.53
2018-11-29T22:53:57.404Z,17.27
2018-11-29T22:56:26.403Z,16.43
2018-11-29T22:58:55.624Z,16.57
2018-11-29T23:01:27.236Z,15.67
2018-11-29T23:03:58.906Z,20.90
2018-11-29T23:06:27.915Z,15.83
2018-11-29T23:08:58.442Z,19.67
2018-11-29T23:11:27.571Z,17.53
2018-11-29T23:13:59.391Z,16.27
2018-11-29T23:16:29.191Z,18.67
2018-11-29T23:18:58.183Z,17.47
2018-11-29T23:21:27.297Z,16.13
2018-11-29T23:23:56.267Z,17.10
2018-11-29T23:26:27.287Z,17.17
2018-11-29T23:29:00.493Z,16.57
2018-11-29T23:31:29.489Z,16.13
2018-11-29T23:33:58.593Z,20.47
2018-11-29T23:36:27.649Z,15.23
2018-11-29T23:38:57.820Z,14.93
2018-11-29T23:41:26.874Z,15.63
2018-11-29T23:43:55.956Z,18.07
2018-11-29T23:46:30.112Z,18.30
2018-11-29T23:48:59.210Z,17.63
2018-11-29T23:51:32.800Z,19.70
2018-11-29T23:54:01.855Z,17.13
2018-11-29T23:56:34.414Z,13.87
2018-11-29T23:59:04.518Z,16.97
